CheckWX is a tool to help pilots better visualize weather data.  It is not intended as a substitute for an official pre-flight weather briefing.

18:26:43 UTC

DTTG TAF
Gabès Matmata International Airport
Gabès, Tunisia
TAF DTTG 261500Z 2616/2701 30005KT 8000 FEW020

Jan-26@
16:00 UTC

Jan-26 @ 16:00 UTC

Jan-27@
01:00 UTC

Jan-27 @ 01:00 UTC

TAF DTTG 261500Z 2616/2701 30005KT 8000 FEW020
Wind
  • 300° at 5 KTS
Cloud Levels
  • Few at 2,000' AGL